sensor_id;sensor_type;location;lat;lon;timestamp;pressure;altitude;pressure_sealevel;temperature;humidity
48244;BME280;34053;51.088;6.572;2023-01-29T00:02:21;102469.69;;;-0.36;66.61
48244;BME280;34053;51.088;6.572;2023-01-29T00:04:52;102473.16;;;-0.36;66.34
48244;BME280;34053;51.088;6.572;2023-01-29T00:07:23;102460.78;;;-0.43;66.07
48244;BME280;34053;51.088;6.572;2023-01-29T00:09:53;102455.78;;;-0.40;66.53
48244;BME280;34053;51.088;6.572;2023-01-29T00:12:24;102458.75;;;-0.50;66.35
48244;BME280;34053;51.088;6.572;2023-01-29T00:14:54;102463.75;;;-0.53;66.10
48244;BME280;34053;51.088;6.572;2023-01-29T00:17:24;102468.84;;;-0.55;66.42
48244;BME280;34053;51.088;6.572;2023-01-29T00:19:56;102473.13;;;-0.55;66.66
48244;BME280;34053;51.088;6.572;2023-01-29T00:22:29;102459.22;;;-0.59;66.94
48244;BME280;34053;51.088;6.572;2023-01-29T00:24:59;102457.66;;;-0.55;67.43
48244;BME280;34053;51.088;6.572;2023-01-29T00:27:30;102458.31;;;-0.59;66.92
48244;BME280;34053;51.088;6.572;2023-01-29T00:30:00;102454.91;;;-0.58;66.87
48244;BME280;34053;51.088;6.572;2023-01-29T00:32:44;102453.94;;;-0.60;67.08
48244;BME280;34053;51.088;6.572;2023-01-29T00:35:15;102451.38;;;-0.60;66.54
48244;BME280;34053;51.088;6.572;2023-01-29T00:37:45;102442.56;;;-0.66;66.76
48244;BME280;34053;51.088;6.572;2023-01-29T00:40:16;102445.13;;;-0.66;66.52
48244;BME280;34053;51.088;6.572;2023-01-29T00:42:46;102440.78;;;-0.67;66.98
48244;BME280;34053;51.088;6.572;2023-01-29T00:45:36;102444.16;;;-0.68;66.52
48244;BME280;34053;51.088;6.572;2023-01-29T00:48:06;102446.75;;;-0.68;66.25
48244;BME280;34053;51.088;6.572;2023-01-29T00:50:37;102446.47;;;-0.74;66.63
48244;BME280;34053;51.088;6.572;2023-01-29T00:53:07;102447.44;;;-0.72;67.03
48244;BME280;34053;51.088;6.572;2023-01-29T00:55:38;102439.75;;;-0.70;66.69
48244;BME280;34053;51.088;6.572;2023-01-29T00:58:08;102438.56;;;-0.77;67.27
48244;BME280;34053;51.088;6.572;2023-01-29T01:00:39;102430.19;;;-0.73;67.27
48244;BME280;34053;51.088;6.572;2023-01-29T01:03:09;102430.19;;;-0.73;67.02
48244;BME280;34053;51.088;6.572;2023-01-29T01:05:40;102425.78;;;-0.75;66.96
48244;BME280;34053;51.088;6.572;2023-01-29T01:08:12;102436.81;;;-0.78;67.25
48244;BME280;34053;51.088;6.572;2023-01-29T01:11:03;102440.22;;;-0.79;66.36
48244;BME280;34053;51.088;6.572;2023-01-29T01:13:37;102439.91;;;-0.85;67.21
48244;BME280;34053;51.088;6.572;2023-01-29T01:16:09;102449.19;;;-0.89;66.73
48244;BME280;34053;51.088;6.572;2023-01-29T01:18:41;102443.91;;;-0.92;67.10
48244;BME280;34053;51.088;6.572;2023-01-29T01:21:12;102449.19;;;-0.89;66.68
48244;BME280;34053;51.088;6.572;2023-01-29T01:23:42;102454.28;;;-0.90;66.90
48244;BME280;34053;51.088;6.572;2023-01-29T01:26:13;102455.25;;;-0.88;67.24
48244;BME280;34053;51.088;6.572;2023-01-29T01:28:43;102449.34;;;-0.86;67.90
48244;BME280;34053;51.088;6.572;2023-01-29T01:31:14;102442.59;;;-0.84;67.72
48244;BME280;34053;51.088;6.572;2023-01-29T01:33:44;102437.50;;;-0.82;66.99
48244;BME280;34053;51.088;6.572;2023-01-29T01:36:15;102438.34;;;-0.82;67.61
48244;BME280;34053;51.088;6.572;2023-01-29T01:38:46;102433.94;;;-0.84;67.34
48244;BME280;34053;51.088;6.572;2023-01-29T01:41:19;102425.41;;;-0.83;66.56
48244;BME280;34053;51.088;6.572;2023-01-29T01:43:54;102412.53;;;-0.83;67.25
48244;BME280;34053;51.088;6.572;2023-01-29T01:46:31;102413.22;;;-0.87;67.26
48244;BME280;34053;51.088;6.572;2023-01-29T01:49:13;102412.38;;;-0.86;66.89
48244;BME280;34053;51.088;6.572;2023-01-29T01:51:47;102415.09;;;-0.83;67.13
48244;BME280;34053;51.088;6.572;2023-01-29T01:54:23;102426.09;;;-0.87;67.82
48244;BME280;34053;51.088;6.572;2023-01-29T01:57:06;102419.81;;;-0.92;68.00
48244;BME280;34053;51.088;6.572;2023-01-29T01:59:48;102414.59;;;-0.94;67.16
48244;BME280;34053;51.088;6.572;2023-01-29T02:02:19;102416.38;;;-0.93;67.83
48244;BME280;34053;51.088;6.572;2023-01-29T02:05:10;102414.44;;;-0.97;67.90
48244;BME280;34053;51.088;6.572;2023-01-29T02:07:59;102422.25;;;-0.96;67.05
48244;BME280;34053;51.088;6.572;2023-01-29T02:10:48;102416.22;;;-0.96;66.93
48244;BME280;34053;51.088;6.572;2023-01-29T02:13:20;102417.81;;;-0.98;67.46
48244;BME280;34053;51.088;6.572;2023-01-29T02:15:50;102415.03;;;-1.03;67.05
48244;BME280;34053;51.088;6.572;2023-01-29T02:18:24;102416.94;;;-0.99;67.39
48244;BME280;34053;51.088;6.572;2023-01-29T02:24:05;102414.38;;;-0.99;66.73
48244;BME280;34053;51.088;6.572;2023-01-29T02:29:34;102421.00;;;-1.04;67.28
48244;BME280;34053;51.088;6.572;2023-01-29T02:37:54;102438.44;;;-1.16;67.42
48244;BME280;34053;51.088;6.572;2023-01-29T02:43:19;102459.63;;;-1.22;67.20
48244;BME280;34053;51.088;6.572;2023-01-29T02:48:41;102466.63;;;-1.19;67.56
48244;BME280;34053;51.088;6.572;2023-01-29T02:51:35;102470.16;;;-1.17;67.96
48244;BME280;34053;51.088;6.572;2023-01-29T02:54:14;102471.13;;;-1.15;67.26
48244;BME280;34053;51.088;6.572;2023-01-29T02:56:59;102471.63;;;-1.22;67.67
48244;BME280;34053;51.088;6.572;2023-01-29T02:59:36;102470.50;;;-1.28;67.83
48244;BME280;34053;51.088;6.572;2023-01-29T03:02:24;102467.44;;;-1.20;67.55
48244;BME280;34053;51.088;6.572;2023-01-29T03:05:01;102454.47;;;-1.22;67.81
48244;BME280;34053;51.088;6.572;2023-01-29T03:07:38;102446.22;;;-1.15;68.05
48244;BME280;34053;51.088;6.572;2023-01-29T03:10:22;102444.16;;;-1.22;68.67
48244;BME280;34053;51.088;6.572;2023-01-29T03:13:01;102449.53;;;-1.17;68.44
48244;BME280;34053;51.088;6.572;2023-01-29T03:15:54;102439.91;;;-1.21;68.38
48244;BME280;34053;51.088;6.572;2023-01-29T03:18:35;102427.69;;;-1.25;68.82
48244;BME280;34053;51.088;6.572;2023-01-29T03:21:17;102421.09;;;-1.20;68.66
48244;BME280;34053;51.088;6.572;2023-01-29T03:24:08;102421.88;;;-1.21;68.41
48244;BME280;34053;51.088;6.572;2023-01-29T03:27:01;102428.13;;;-1.16;68.57
48244;BME280;34053;51.088;6.572;2023-01-29T03:29:50;102431.69;;;-1.14;67.91
48244;BME280;34053;51.088;6.572;2023-01-29T03:32:42;102433.44;;;-1.13;67.56
48244;BME280;34053;51.088;6.572;2023-01-29T03:35:17;102436.09;;;-1.12;67.66
48244;BME280;34053;51.088;6.572;2023-01-29T03:37:51;102434.38;;;-1.11;67.84
48244;BME280;34053;51.088;6.572;2023-01-29T03:40:22;102431.00;;;-1.10;68.16
48244;BME280;34053;51.088;6.572;2023-01-29T03:45:42;102441.97;;;-1.14;67.99
48244;BME280;34053;51.088;6.572;2023-01-29T03:51:30;102448.81;;;-1.15;68.02
48244;BME280;34053;51.088;6.572;2023-01-29T03:54:16;102445.53;;;-1.12;68.35
48244;BME280;34053;51.088;6.572;2023-01-29T03:57:07;102446.41;;;-1.12;68.05
48244;BME280;34053;51.088;6.572;2023-01-29T04:02:30;102441.97;;;-1.14;68.55
48244;BME280;34053;51.088;6.572;2023-01-29T04:05:05;102441.91;;;-1.16;68.05
48244;BME280;34053;51.088;6.572;2023-01-29T04:07:39;102436.66;;;-1.17;68.48
48244;BME280;34053;51.088;6.572;2023-01-29T04:10:18;102431.28;;;-1.22;68.90
48244;BME280;34053;51.088;6.572;2023-01-29T04:13:03;102423.50;;;-1.23;68.88
48244;BME280;34053;51.088;6.572;2023-01-29T04:15:43;102427.69;;;-1.25;68.89
48244;BME280;34053;51.088;6.572;2023-01-29T04:18:15;102425.28;;;-1.22;68.59
48244;BME280;34053;51.088;6.572;2023-01-29T04:20:46;102411.81;;;-1.17;68.31
48244;BME280;34053;51.088;6.572;2023-01-29T04:23:22;102408.44;;;-1.16;68.33
48244;BME280;34053;51.088;6.572;2023-01-29T04:31:31;102403.53;;;-1.28;68.72
48244;BME280;34053;51.088;6.572;2023-01-29T04:34:06;102400.03;;;-1.30;69.37
48244;BME280;34053;51.088;6.572;2023-01-29T04:37:11;102389.84;;;-1.27;68.76
48244;BME280;34053;51.088;6.572;2023-01-29T04:39:55;102390.66;;;-1.28;69.24
48244;BME280;34053;51.088;6.572;2023-01-29T04:45:24;102377.78;;;-1.28;69.03
48244;BME280;34053;51.088;6.572;2023-01-29T04:48:18;102379.25;;;-1.33;69.15
48244;BME280;34053;51.088;6.572;2023-01-29T04:51:11;102376.97;;;-1.27;68.68
48244;BME280;34053;51.088;6.572;2023-01-29T04:53:51;102377.78;;;-1.28;68.17
48244;BME280;34053;51.088;6.572;2023-01-29T04:59:22;102374.19;;;-1.31;69.30
48244;BME280;34053;51.088;6.572;2023-01-29T05:01:58;102379.09;;;-1.36;69.16
48244;BME280;34053;51.088;6.572;2023-01-29T05:04:32;102370.91;;;-1.29;68.90
48244;BME280;34053;51.088;6.572;2023-01-29T05:07:05;102369.13;;;-1.30;69.26
48244;BME280;34053;51.088;6.572;2023-01-29T05:09:38;102364.78;;;-1.31;69.15
48244;BME280;34053;51.088;6.572;2023-01-29T05:12:10;102352.53;;;-1.35;69.47
48244;BME280;34053;51.088;6.572;2023-01-29T05:14:44;102360.28;;;-1.35;69.75
48244;BME280;34053;51.088;6.572;2023-01-29T05:17:17;102369.63;;;-1.37;69.64
48244;BME280;34053;51.088;6.572;2023-01-29T05:19:49;102364.31;;;-1.40;69.53
48244;BME280;34053;51.088;6.572;2023-01-29T05:22:20;102357.41;;;-1.41;70.55
48244;BME280;34053;51.088;6.572;2023-01-29T05:24:52;102350.78;;;-1.36;69.54
48244;BME280;34053;51.088;6.572;2023-01-29T05:27:28;102356.09;;;-1.33;69.67
48244;BME280;34053;51.088;6.572;2023-01-29T05:30:19;102347.09;;;-1.41;69.86
48244;BME280;34053;51.088;6.572;2023-01-29T05:32:49;102347.03;;;-1.43;70.19
48244;BME280;34053;51.088;6.572;2023-01-29T05:35:20;102347.28;;;-1.38;69.57
48244;BME280;34053;51.088;6.572;2023-01-29T05:37:50;102354.66;;;-1.44;69.28
48244;BME280;34053;51.088;6.572;2023-01-29T05:40:22;102359.25;;;-1.38;70.02
48244;BME280;34053;51.088;6.572;2023-01-29T05:42:52;102360.59;;;-1.29;69.17
48244;BME280;34053;51.088;6.572;2023-01-29T05:45:23;102360.59;;;-1.29;69.36
48244;BME280;34053;51.088;6.572;2023-01-29T05:47:55;102362.84;;;-1.35;70.37
48244;BME280;34053;51.088;6.572;2023-01-29T05:50:26;102353.22;;;-1.39;69.86
48244;BME280;34053;51.088;6.572;2023-01-29T05:52:58;102356.03;;;-1.34;69.83
48244;BME280;34053;51.088;6.572;2023-01-29T05:55:29;102351.63;;;-1.37;70.26
48244;BME280;34053;51.088;6.572;2023-01-29T05:58:00;102344.69;;;-1.38;69.92
48244;BME280;34053;51.088;6.572;2023-01-29T06:00:30;102340.34;;;-1.39;70.93
48244;BME280;34053;51.088;6.572;2023-01-29T06:03:01;102346.75;;;-1.31;70.58
48244;BME280;34053;51.088;6.572;2023-01-29T06:05:31;102346.59;;;-1.34;69.56
48244;BME280;34053;51.088;6.572;2023-01-29T06:08:02;102354.66;;;-1.44;70.71
48244;BME280;34053;51.088;6.572;2023-01-29T06:10:33;102353.34;;;-1.36;70.37
48244;BME280;34053;51.088;6.572;2023-01-29T06:13:03;102364.78;;;-1.31;70.38
48244;BME280;34053;51.088;6.572;2023-01-29T06:15:34;102364.56;;;-1.35;70.35
48244;BME280;34053;51.088;6.572;2023-01-29T06:18:04;102370.44;;;-1.38;70.83
48244;BME280;34053;51.088;6.572;2023-01-29T06:20:35;102377.38;;;-1.37;69.87
48244;BME280;34053;51.088;6.572;2023-01-29T06:23:06;102375.88;;;-1.32;70.11
48244;BME280;34053;51.088;6.572;2023-01-29T06:25:36;102381.69;;;-1.36;70.13
48244;BME280;34053;51.088;6.572;2023-01-29T06:28:07;102386.19;;;-1.32;69.96
48244;BME280;34053;51.088;6.572;2023-01-29T06:30:37;102399.88;;;-1.33;70.14
48244;BME280;34053;51.088;6.572;2023-01-29T06:33:08;102395.38;;;-1.37;70.70
48244;BME280;34053;51.088;6.572;2023-01-29T06:35:38;102413.41;;;-1.37;69.96
48244;BME280;34053;51.088;6.572;2023-01-29T06:38:09;102414.13;;;-1.39;70.96
48244;BME280;34053;51.088;6.572;2023-01-29T06:40:39;102418.47;;;-1.38;70.89
48244;BME280;34053;51.088;6.572;2023-01-29T06:43:10;102422.25;;;-1.32;70.06
48244;BME280;34053;51.088;6.572;2023-01-29T06:45:51;102410.22;;;-1.31;70.45
48244;BME280;34053;51.088;6.572;2023-01-29T06:48:23;102406.13;;;-1.28;70.98
48244;BME280;34053;51.088;6.572;2023-01-29T06:50:54;102406.94;;;-1.29;70.67
48244;BME280;34053;51.088;6.572;2023-01-29T06:53:24;102413.66;;;-1.32;71.24
48244;BME280;34053;51.088;6.572;2023-01-29T06:55:55;102413.13;;;-1.25;70.56
48244;BME280;34053;51.088;6.572;2023-01-29T06:58:26;102407.88;;;-1.27;71.19
48244;BME280;34053;51.088;6.572;2023-01-29T07:01:07;102391.34;;;-1.32;71.68
48244;BME280;34053;51.088;6.572;2023-01-29T07:03:38;102396.66;;;-1.29;72.36
48244;BME280;34053;51.088;6.572;2023-01-29T07:06:10;102388.31;;;-1.23;71.48
48244;BME280;34053;51.088;6.572;2023-01-29T07:08:41;102378.84;;;-1.24;72.31
48244;BME280;34053;51.088;6.572;2023-01-29T07:11:11;102371.03;;;-1.25;72.08
48244;BME280;34053;51.088;6.572;2023-01-29T07:13:42;102375.66;;;-1.18;71.55
48244;BME280;34053;51.088;6.572;2023-01-29T07:16:12;102383.53;;;-1.15;71.06
48244;BME280;34053;51.088;6.572;2023-01-29T07:18:43;102385.50;;;-1.28;73.83
48244;BME280;34053;51.088;6.572;2023-01-29T07:21:13;102378.22;;;-1.18;72.31
48244;BME280;34053;51.088;6.572;2023-01-29T07:23:44;102381.75;;;-1.16;72.29
48244;BME280;34053;51.088;6.572;2023-01-29T07:26:15;102385.44;;;-1.29;74.13
48244;BME280;34053;51.088;6.572;2023-01-29T07:28:45;102385.03;;;-1.20;73.73
48244;BME280;34053;51.088;6.572;2023-01-29T07:31:16;102378.66;;;-1.09;72.69
48244;BME280;34053;51.088;6.572;2023-01-29T07:33:46;102384.28;;;-1.18;73.73
48244;BME280;34053;51.088;6.572;2023-01-29T07:36:17;102388.16;;;-1.08;72.97
48244;BME280;34053;51.088;6.572;2023-01-29T07:38:48;102381.25;;;-1.09;73.20
48244;BME280;34053;51.088;6.572;2023-01-29T07:41:20;102390.59;;;-1.11;73.15
48244;BME280;34053;51.088;6.572;2023-01-29T07:43:50;102381.75;;;-1.16;73.86
48244;BME280;34053;51.088;6.572;2023-01-29T07:46:20;102385.31;;;-1.14;73.73
48244;BME280;34053;51.088;6.572;2023-01-29T07:48:51;102381.94;;;-1.13;74.25
48244;BME280;34053;51.088;6.572;2023-01-29T07:51:21;102370.28;;;-1.05;73.34
48244;BME280;34053;51.088;6.572;2023-01-29T07:53:52;102361.75;;;-1.04;73.70
48244;BME280;34053;51.088;6.572;2023-01-29T07:56:22;102361.34;;;-0.93;73.80
48244;BME280;34053;51.088;6.572;2023-01-29T07:58:53;102381.03;;;-0.96;74.01
48244;BME280;34053;51.088;6.572;2023-01-29T08:01:23;102373.84;;;-0.83;73.05
48244;BME280;34053;51.088;6.572;2023-01-29T08:03:54;102375.19;;;-0.91;73.93
48244;BME280;34053;51.088;6.572;2023-01-29T08:06:24;102378.53;;;-0.94;73.65
48244;BME280;34053;51.088;6.572;2023-01-29T08:08:55;102360.81;;;-0.86;73.52
48244;BME280;34053;51.088;6.572;2023-01-29T08:11:26;102357.84;;;-0.96;74.41
48244;BME280;34053;51.088;6.572;2023-01-29T08:13:56;102357.00;;;-0.95;74.41
48244;BME280;34053;51.088;6.572;2023-01-29T08:16:27;102360.63;;;-0.91;73.64
48244;BME280;34053;51.088;6.572;2023-01-29T08:18:57;102363.22;;;-0.91;74.09
48244;BME280;34053;51.088;6.572;2023-01-29T08:21:28;102376.44;;;-0.83;73.84
48244;BME280;34053;51.088;6.572;2023-01-29T08:23:58;102378.38;;;-0.79;73.41
48244;BME280;34053;51.088;6.572;2023-01-29T08:26:29;102384.81;;;-0.69;72.93
48244;BME280;34053;51.088;6.572;2023-01-29T08:29:00;102386.66;;;-0.67;73.49
48244;BME280;34053;51.088;6.572;2023-01-29T08:31:31;102383.91;;;-0.70;73.68
48244;BME280;34053;51.088;6.572;2023-01-29T08:34:02;102378.91;;;-0.67;73.90
48244;BME280;34053;51.088;6.572;2023-01-29T08:36:33;102382.72;;;-0.58;73.40
48244;BME280;34053;51.088;6.572;2023-01-29T08:39:04;102380.41;;;-0.52;73.50
48244;BME280;34053;51.088;6.572;2023-01-29T08:41:34;102374.19;;;-0.57;73.43
48244;BME280;34053;51.088;6.572;2023-01-29T08:44:05;102378.59;;;-0.55;73.71
48244;BME280;34053;51.088;6.572;2023-01-29T08:46:35;102381.38;;;-0.50;73.11
48244;BME280;34053;51.088;6.572;2023-01-29T08:49:08;102366.50;;;-0.56;74.04
48244;BME280;34053;51.088;6.572;2023-01-29T08:51:38;102370.53;;;-0.62;74.70
48244;BME280;34053;51.088;6.572;2023-01-29T08:54:09;102354.16;;;-0.63;74.85
48244;BME280;34053;51.088;6.572;2023-01-29T08:56:39;102351.56;;;-0.63;75.23
48244;BME280;34053;51.088;6.572;2023-01-29T08:59:09;102347.81;;;-0.70;75.55
48244;BME280;34053;51.088;6.572;2023-01-29T09:01:40;102347.09;;;-0.67;75.34
48244;BME280;34053;51.088;6.572;2023-01-29T09:04:10;102350.22;;;-0.74;75.78
48244;BME280;34053;51.088;6.572;2023-01-29T09:06:41;102352.72;;;-0.76;76.01
48244;BME280;34053;51.088;6.572;2023-01-29T09:09:11;102364.53;;;-0.61;75.52
48244;BME280;34053;51.088;6.572;2023-01-29T09:11:43;102357.22;;;-0.52;74.67
48244;BME280;34053;51.088;6.572;2023-01-29T09:14:14;102354.50;;;-0.55;74.99
48244;BME280;34053;51.088;6.572;2023-01-29T09:16:44;102359.31;;;-0.63;75.73
48244;BME280;34053;51.088;6.572;2023-01-29T09:19:15;102361.50;;;-0.53;75.30
48244;BME280;34053;51.088;6.572;2023-01-29T09:21:45;102348.13;;;-0.64;76.11
48244;BME280;34053;51.088;6.572;2023-01-29T09:24:16;102342.84;;;-0.47;75.39
48244;BME280;34053;51.088;6.572;2023-01-29T09:26:46;102330.22;;;-0.41;75.24
48244;BME280;34053;51.088;6.572;2023-01-29T09:29:17;102329.75;;;-0.52;76.33
48244;BME280;34053;51.088;6.572;2023-01-29T09:31:47;102327.63;;;-0.41;75.77
48244;BME280;34053;51.088;6.572;2023-01-29T09:34:17;102330.06;;;-0.44;76.54
48244;BME280;34053;51.088;6.572;2023-01-29T09:36:48;102332.19;;;-0.35;76.04
48244;BME280;34053;51.088;6.572;2023-01-29T09:39:18;102331.97;;;-0.40;76.27
48244;BME280;34053;51.088;6.572;2023-01-29T09:47:11;102321.13;;;-0.33;76.39
48244;BME280;34053;51.088;6.572;2023-01-29T09:49:55;102327.09;;;-0.34;76.13
48244;BME280;34053;51.088;6.572;2023-01-29T09:52:32;102320.41;;;-0.28;75.87
48244;BME280;34053;51.088;6.572;2023-01-29T09:55:21;102307.81;;;-0.42;76.75
48244;BME280;34053;51.088;6.572;2023-01-29T09:57:56;102304.56;;;-0.38;76.97
48244;BME280;34053;51.088;6.572;2023-01-29T10:00:39;102299.91;;;-0.25;76.44
48244;BME280;34053;51.088;6.572;2023-01-29T10:03:27;102289.84;;;-0.19;76.17
48244;BME280;34053;51.088;6.572;2023-01-29T10:06:30;102291.38;;;-0.24;76.83
48244;BME280;34053;51.088;6.572;2023-01-29T10:20:25;102283.63;;;-0.24;77.79
48244;BME280;34053;51.088;6.572;2023-01-29T10:25:44;102288.94;;;-0.21;77.68
48244;BME280;34053;51.088;6.572;2023-01-29T10:28:24;102293.63;;;-0.11;77.24
48244;BME280;34053;51.088;6.572;2023-01-29T10:31:03;102308.19;;;-0.13;77.37
48244;BME280;34053;51.088;6.572;2023-01-29T10:33:44;102295.66;;;-0.04;77.14
48244;BME280;34053;51.088;6.572;2023-01-29T10:36:22;102303.41;;;-0.04;77.13
48244;BME280;34053;51.088;6.572;2023-01-29T10:38:55;102293.03;;;-0.05;76.78
48244;BME280;34053;51.088;6.572;2023-01-29T10:51:41;102278.44;;;0.17;76.22
48244;BME280;34053;51.088;6.572;2023-01-29T11:01:59;102270.19;;;0.25;76.19
48244;BME280;34053;51.088;6.572;2023-01-29T11:04:33;102273.44;;;0.21;76.68
48244;BME280;34053;51.088;6.572;2023-01-29T11:07:04;102262.31;;;0.22;76.23
48244;BME280;34053;51.088;6.572;2023-01-29T11:09:41;102257.28;;;0.25;76.83
48244;BME280;34053;51.088;6.572;2023-01-29T11:12:21;102260.63;;;0.23;76.50
48244;BME280;34053;51.088;6.572;2023-01-29T11:17:30;102252.25;;;0.28;76.47
48244;BME280;34053;51.088;6.572;2023-01-29T11:20:01;102251.84;;;0.40;76.07
48244;BME280;34053;51.088;6.572;2023-01-29T11:22:31;102242.38;;;0.41;76.27
48244;BME280;34053;51.088;6.572;2023-01-29T11:25:19;102244.03;;;0.39;75.88
48244;BME280;34053;51.088;6.572;2023-01-29T11:27:59;102238.13;;;0.41;76.18
48244;BME280;34053;51.088;6.572;2023-01-29T11:30:34;102232.19;;;0.44;76.21
48244;BME280;34053;51.088;6.572;2023-01-29T11:33:21;102235.69;;;0.46;75.96
48244;BME280;34053;51.088;6.572;2023-01-29T11:35:52;102225.91;;;0.60;75.60
48244;BME280;34053;51.088;6.572;2023-01-29T11:38:26;102220.31;;;0.72;75.31
48244;BME280;34053;51.088;6.572;2023-01-29T11:41:14;102216.50;;;0.62;75.65
48244;BME280;34053;51.088;6.572;2023-01-29T11:43:47;102217.38;;;0.62;76.08
48244;BME280;34053;51.088;6.572;2023-01-29T11:46:18;102205.47;;;0.66;76.07
48244;BME280;34053;51.088;6.572;2023-01-29T11:48:50;102202.81;;;0.65;75.62
48244;BME280;34053;51.088;6.572;2023-01-29T11:51:28;102192.72;;;0.71;75.44
48244;BME280;34053;51.088;6.572;2023-01-29T11:54:01;102193.66;;;0.73;75.78
48244;BME280;34053;51.088;6.572;2023-01-29T11:56:38;102186.97;;;0.78;75.78
48244;BME280;34053;51.088;6.572;2023-01-29T12:02:24;102167.94;;;0.76;75.69
48244;BME280;34053;51.088;6.572;2023-01-29T12:05:22;102163.00;;;0.82;75.36
48244;BME280;34053;51.088;6.572;2023-01-29T12:07:54;102158.16;;;0.91;76.58
48244;BME280;34053;51.088;6.572;2023-01-29T12:10:36;102159.91;;;0.92;76.33
48244;BME280;34053;51.088;6.572;2023-01-29T12:16:05;102149.38;;;0.86;75.70
48244;BME280;34053;51.088;6.572;2023-01-29T12:19:04;102137.59;;;0.94;75.71
48244;BME280;34053;51.088;6.572;2023-01-29T12:21:47;102121.34;;;0.99;75.69
48244;BME280;34053;51.088;6.572;2023-01-29T12:27:15;102108.56;;;1.02;76.06
48244;BME280;34053;51.088;6.572;2023-01-29T12:30:04;102099.41;;;1.12;75.28
48244;BME280;34053;51.088;6.572;2023-01-29T12:36:30;102083.84;;;1.10;75.22
48244;BME280;34053;51.088;6.572;2023-01-29T12:38:33;102079.81;;;1.18;75.67
48244;BME280;34053;51.088;6.572;2023-01-29T12:43:44;102060.97;;;1.22;75.15
48244;BME280;34053;51.088;6.572;2023-01-29T12:46:33;102055.28;;;1.33;74.59
48244;BME280;34053;51.088;6.572;2023-01-29T12:49:14;102053.41;;;1.29;74.62
48244;BME280;34053;51.088;6.572;2023-01-29T12:52:17;102045.88;;;1.35;74.35
48244;BME280;34053;51.088;6.572;2023-01-29T12:55:01;102044.25;;;1.38;74.22
48244;BME280;34053;51.088;6.572;2023-01-29T13:00:25;102032.31;;;1.42;74.36
48244;BME280;34053;51.088;6.572;2023-01-29T13:05:56;102022.03;;;1.45;74.33
48244;BME280;34053;51.088;6.572;2023-01-29T13:08:37;102017.88;;;1.49;74.09
48244;BME280;34053;51.088;6.572;2023-01-29T13:11:19;102010.81;;;1.45;74.06
48244;BME280;34053;51.088;6.572;2023-01-29T13:13:55;101999.78;;;1.50;74.38
48244;BME280;34053;51.088;6.572;2023-01-29T13:16:36;101991.22;;;1.51;74.11
48244;BME280;34053;51.088;6.572;2023-01-29T13:21:47;101986.22;;;1.57;73.46
48244;BME280;34053;51.088;6.572;2023-01-29T13:24:20;101977.75;;;1.63;73.53
48244;BME280;34053;51.088;6.572;2023-01-29T13:26:52;101976.16;;;1.67;73.50
48244;BME280;34053;51.088;6.572;2023-01-29T13:29:28;101976.03;;;1.64;73.53
48244;BME280;34053;51.088;6.572;2023-01-29T13:32:01;101977.06;;;1.69;73.32
48244;BME280;34053;51.088;6.572;2023-01-29T13:34:44;101982.31;;;1.72;73.70
48244;BME280;34053;51.088;6.572;2023-01-29T13:37:23;101986.94;;;1.82;73.56
48244;BME280;34053;51.088;6.572;2023-01-29T13:39:58;101986.91;;;1.81;73.22
48244;BME280;34053;51.088;6.572;2023-01-29T13:42:45;101994.84;;;1.87;73.59
48244;BME280;34053;51.088;6.572;2023-01-29T13:45:24;101999.06;;;1.83;72.86
48244;BME280;34053;51.088;6.572;2023-01-29T13:48:23;102006.00;;;1.84;72.78
48244;BME280;34053;51.088;6.572;2023-01-29T13:50:56;102010.41;;;1.88;72.76
48244;BME280;34053;51.088;6.572;2023-01-29T13:53:35;102003.41;;;1.84;71.93
48244;BME280;34053;51.088;6.572;2023-01-29T13:59:04;102006.97;;;1.88;71.96
48244;BME280;34053;51.088;6.572;2023-01-29T14:01:59;102000.69;;;1.80;72.29
48244;BME280;34053;51.088;6.572;2023-01-29T14:04:32;102004.19;;;1.82;72.45
48244;BME280;34053;51.088;6.572;2023-01-29T14:10:13;102003.16;;;1.77;72.34
48244;BME280;34053;51.088;6.572;2023-01-29T14:12:45;102005.78;;;1.78;72.12
48244;BME280;34053;51.088;6.572;2023-01-29T14:15:17;102005.09;;;1.84;72.85
48244;BME280;34053;51.088;6.572;2023-01-29T14:31:37;101995.72;;;1.87;72.71
48244;BME280;34053;51.088;6.572;2023-01-29T14:34:30;101992.03;;;1.79;72.74
48244;BME280;34053;51.088;6.572;2023-01-29T14:37:18;101988.53;;;1.77;72.78
48244;BME280;34053;51.088;6.572;2023-01-29T14:39:51;101978.09;;;1.74;72.92
48244;BME280;34053;51.088;6.572;2023-01-29T14:50:05;101977.22;;;1.73;73.63
48244;BME280;34053;51.088;6.572;2023-01-29T14:52:53;101981.38;;;1.70;73.78
48244;BME280;34053;51.088;6.572;2023-01-29T14:58:27;101989.28;;;1.75;73.23
48244;BME280;34053;51.088;6.572;2023-01-29T15:01:01;101984.09;;;1.73;73.68
48244;BME280;34053;51.088;6.572;2023-01-29T15:03:43;101987.66;;;1.78;73.48
48244;BME280;34053;51.088;6.572;2023-01-29T15:06:19;101985.06;;;1.77;73.29
48244;BME280;34053;51.088;6.572;2023-01-29T15:08:56;101984.19;;;1.76;73.03
48244;BME280;34053;51.088;6.572;2023-01-29T15:11:55;101986.66;;;1.73;73.03
48244;BME280;34053;51.088;6.572;2023-01-29T15:15:10;101984.09;;;1.73;72.93
48244;BME280;34053;51.088;6.572;2023-01-29T15:20:32;101981.34;;;1.68;72.94
48244;BME280;34053;51.088;6.572;2023-01-29T15:23:27;101985.41;;;1.60;73.17
48244;BME280;34053;51.088;6.572;2023-01-29T15:26:05;101983.16;;;1.71;72.48
48244;BME280;34053;51.088;6.572;2023-01-29T15:28:37;101982.97;;;1.65;72.41
48244;BME280;34053;51.088;6.572;2023-01-29T15:31:12;101974.94;;;1.55;72.45
48244;BME280;34053;51.088;6.572;2023-01-29T15:33:48;101970.69;;;1.57;72.90
48244;BME280;34053;51.088;6.572;2023-01-29T15:36:28;101966.34;;;1.56;72.88
48244;BME280;34053;51.088;6.572;2023-01-29T15:41:47;101961.94;;;1.52;72.64
48244;BME280;34053;51.088;6.572;2023-01-29T15:44:20;101958.59;;;1.56;72.92
48244;BME280;34053;51.088;6.572;2023-01-29T15:46:52;101954.31;;;1.57;72.20
48244;BME280;34053;51.088;6.572;2023-01-29T15:49:28;101941.31;;;1.55;72.67
48244;BME280;34053;51.088;6.572;2023-01-29T15:52:06;101944.00;;;1.59;72.98
48244;BME280;34053;51.088;6.572;2023-01-29T15:54:38;101939.47;;;1.51;73.10